Time;durP1;ratioP1;P1;durP2;ratioP2;P2;SDS_P1;SDS_P2;PMS_P1;PMS_P2;Temp;Humidity;BMP_temperature;BMP_pressure;BME280_temperature;BME280_humidity;BME280_pressure;Samples;Min_cycle;Max_cycle;Signal;HPM_P1;HPM_P2
2023/09/28 00:01:36;;;;;;;23.55;14.50;;;;;;;17.49;93.16;100970.06;5048590;28;20099;-70
2023/09/28 00:04:06;;;;;;;23.75;18.15;;;;;;;17.46;93.41;100978.28;5049471;28;20056;-72
2023/09/28 00:06:34;;;;;;;19.98;14.63;;;;;;;17.43;93.02;100981.22;5040105;28;20063;-72
2023/09/28 00:09:02;;;;;;;35.88;15.68;;;;;;;17.41;93.24;100980.47;5030415;28;20507;-71
2023/09/28 00:11:29;;;;;;;21.83;15.20;;;;;;;17.37;93.74;100974.56;5072506;28;20055;-74
2023/09/28 00:13:57;;;;;;;22.98;15.38;;;;;;;17.36;93.73;100972.03;5068710;28;21712;-73
2023/09/28 00:16:24;;;;;;;20.23;15.18;;;;;;;17.34;93.60;100969.50;5046575;28;20786;-71
2023/09/28 00:18:52;;;;;;;19.85;16.13;;;;;;;17.32;93.91;100975.91;5010481;28;20061;-71
2023/09/28 00:21:19;;;;;;;21.17;14.93;;;;;;;17.27;93.83;100978.94;5040061;28;20064;-74
2023/09/28 00:23:49;;;;;;;25.00;14.95;;;;;;;17.24;94.02;100975.69;5048446;28;20573;-75
2023/09/28 00:26:16;;;;;;;19.85;15.52;;;;;;;17.20;94.79;100978.63;5030617;28;20662;-74
2023/09/28 00:28:44;;;;;;;19.58;13.73;;;;;;;17.17;94.84;100978.00;5064975;28;20198;-74
2023/09/28 00:31:11;;;;;;;18.30;13.18;;;;;;;17.15;94.86;100966.63;5050234;28;20915;-75
2023/09/28 00:33:39;;;;;;;17.08;12.88;;;;;;;17.13;94.89;100966.75;5028842;28;20075;-72
2023/09/28 00:36:08;;;;;;;20.27;13.70;;;;;;;17.09;95.53;100967.97;5033651;28;20056;-74
2023/09/28 00:38:36;;;;;;;22.08;13.98;;;;;;;17.06;95.99;100970.03;5061843;28;20063;-74
2023/09/28 00:41:04;;;;;;;18.83;13.70;;;;;;;17.01;96.38;100967.75;5044158;28;20139;-73
2023/09/28 00:43:31;;;;;;;16.85;13.82;;;;;;;16.98;96.80;100961.84;5040965;28;20110;-72
2023/09/28 00:45:59;;;;;;;18.35;13.80;;;;;;;16.94;96.58;100969.22;5071302;28;20532;-74
2023/09/28 00:48:27;;;;;;;18.52;13.70;;;;;;;16.91;98.16;100967.66;5042320;28;20744;-69
2023/09/28 00:50:54;;;;;;;15.60;13.90;;;;;;;16.89;97.78;100961.63;5044297;28;20056;-68
2023/09/28 00:53:22;;;;;;;15.05;13.02;;;;;;;16.85;98.17;100954.84;5069233;28;20056;-73
2023/09/28 00:55:49;;;;;;;20.63;14.02;;;;;;;16.84;98.15;100962.94;5028164;28;20057;-71
2023/09/28 00:58:17;;;;;;;16.77;14.68;;;;;;;16.83;98.33;100954.09;5066393;28;20080;-72
2023/09/28 01:00:44;;;;;;;22.48;13.93;;;;;;;16.81;98.81;100949.91;5044214;28;20101;-69
2023/09/28 01:03:12;;;;;;;19.95;13.70;;;;;;;16.80;99.23;100956.19;5058963;28;20497;-68
2023/09/28 01:05:40;;;;;;;19.65;14.00;;;;;;;16.78;98.95;100955.44;5045244;28;20204;-70
2023/09/28 01:08:12;;;;;;;16.80;12.55;;;;;;;16.77;98.97;100953.78;5055662;28;20503;-69
2023/09/28 01:10:40;;;;;;;17.33;13.55;;;;;;;16.75;98.62;100958.34;5033016;28;20060;-73
2023/09/28 01:13:12;;;;;;;22.02;13.85;;;;;;;16.74;99.20;100956.66;5065212;28;20052;-75
2023/09/28 01:15:49;;;;;;;17.55;12.57;;;;;;;16.75;98.40;100950.38;5050534;28;20426;-69
2023/09/28 01:18:19;;;;;;;16.77;12.25;;;;;;;16.76;98.96;100952.94;5027699;28;20091;-69
2023/09/28 01:20:48;;;;;;;17.13;12.57;;;;;;;16.77;98.54;100943.13;5043960;28;20117;-70
2023/09/28 01:23:16;;;;;;;15.35;12.80;;;;;;;16.78;98.91;100939.50;5046973;28;20065;-70
2023/09/28 01:25:49;;;;;;;17.02;12.35;;;;;;;16.77;99.03;100941.31;5064192;28;20467;-74
2023/09/28 01:28:16;;;;;;;13.05;11.40;;;;;;;16.75;98.16;100945.06;5059386;28;20080;-69
2023/09/28 01:30:45;;;;;;;14.73;13.10;;;;;;;16.73;99.01;100947.84;5070254;28;20080;-70
2023/09/28 01:33:13;;;;;;;23.27;12.23;;;;;;;16.71;98.96;100941.78;5047505;28;20127;-68
2023/09/28 01:35:41;;;;;;;26.58;13.75;;;;;;;16.68;99.27;100950.84;5062853;28;20572;-68
2023/09/28 01:38:41;;;;;;;16.77;12.70;;;;;;;16.65;99.35;100948.41;5016276;28;20100;-68
2023/09/28 01:41:09;;;;;;;20.95;13.23;;;;;;;16.63;99.16;100952.19;5029920;28;20084;-68
2023/09/28 01:43:36;;;;;;;14.52;12.75;;;;;;;16.61;99.40;100943.47;5066559;28;20057;-68
2023/09/28 01:46:04;;;;;;;17.80;11.73;;;;;;;16.58;99.34;100949.88;5064592;28;20144;-68
2023/09/28 01:48:31;;;;;;;19.88;12.35;;;;;;;16.55;99.31;100944.78;5076844;28;20143;-69
2023/09/28 01:51:03;;;;;;;20.73;12.77;;;;;;;16.54;99.82;100934.31;5043120;28;20066;-69
2023/09/28 01:53:31;;;;;;;16.42;11.98;;;;;;;16.50;99.78;100935.50;5049198;28;20053;-68
2023/09/28 01:56:02;;;;;;;17.05;12.73;;;;;;;16.48;99.59;100935.63;5064213;28;20084;-68
2023/09/28 01:58:30;;;;;;;18.20;12.07;;;;;;;16.45;99.98;100928.75;5065239;28;20491;-68
2023/09/28 02:00:57;;;;;;;14.63;12.57;;;;;;;16.43;100.00;100929.81;5022506;28;20521;-68
2023/09/28 02:03:50;;;;;;;15.57;13.13;;;;;;;16.40;100.00;100930.91;5052375;28;20133;-71
2023/09/28 02:06:18;;;;;;;16.65;12.18;;;;;;;16.36;100.00;100934.78;5064990;28;20057;-69
2023/09/28 02:08:45;;;;;;;17.05;12.77;;;;;;;16.34;100.00;100931.38;5031252;28;20511;-71
2023/09/28 02:11:13;;;;;;;13.80;12.18;;;;;;;16.31;100.00;100928.97;5068358;28;20088;-71
2023/09/28 02:13:41;;;;;;;16.35;12.68;;;;;;;16.28;100.00;100923.91;5063666;28;20098;-70
2023/09/28 02:16:10;;;;;;;16.45;12.18;;;;;;;16.26;100.00;100930.31;5065205;28;20052;-70
2023/09/28 02:18:41;;;;;;;14.93;11.80;;;;;;;16.23;100.00;100925.22;5028182;28;20053;-70
2023/09/28 02:21:13;;;;;;;19.10;12.82;;;;;;;16.22;100.00;100926.19;5040124;28;20053;-70
2023/09/28 02:23:41;;;;;;;19.55;12.43;;;;;;;16.17;100.00;100927.41;5030775;28;20048;-70
2023/09/28 02:26:11;;;;;;;20.00;12.18;;;;;;;16.15;100.00;100920.50;5065012;28;20056;-71
2023/09/28 02:28:38;;;;;;;15.88;12.57;;;;;;;16.12;100.00;100921.59;5065851;28;20040;-71
2023/09/28 02:31:06;;;;;;;16.23;11.65;;;;;;;16.11;100.00;100919.88;5047965;28;20101;-70
2023/09/28 02:33:34;;;;;;;14.73;11.35;;;;;;;16.11;100.00;100924.34;5035250;28;20320;-69
2023/09/28 02:36:02;;;;;;;16.63;12.30;;;;;;;16.08;100.00;100919.31;5056641;28;20114;-71
2023/09/28 02:38:29;;;;;;;16.70;12.23;;;;;;;16.06;100.00;100911.44;5029737;28;20091;-70
2023/09/28 02:40:56;;;;;;;17.05;12.77;;;;;;;16.04;100.00;100912.53;5065074;28;20072;-69
2023/09/28 02:43:24;;;;;;;17.17;11.85;;;;;;;16.01;100.00;100918.91;5048970;28;20121;-68
2023/09/28 02:45:55;;;;;;;14.73;11.65;;;;;;;15.99;100.00;100918.19;5031099;28;20558;-71
2023/09/28 02:48:23;;;;;;;20.27;11.93;;;;;;;15.96;100.00;100921.09;5021563;28;20060;-69
2023/09/28 02:50:50;;;;;;;19.05;12.10;;;;;;;15.93;100.00;100911.53;5043536;28;20046;-73
2023/09/28 02:53:20;;;;;;;28.30;12.35;;;;;;;15.92;100.00;100911.66;5052947;28;20060;-71
2023/09/28 02:55:48;;;;;;;15.00;11.57;;;;;;;15.89;100.00;100904.75;5066699;28;20128;-71
2023/09/28 02:58:16;;;;;;;15.38;11.70;;;;;;;15.89;100.00;100906.56;5033232;28;20061;-73
2023/09/28 03:00:43;;;;;;;21.65;11.85;;;;;;;15.86;100.00;100904.16;5036563;28;20086;-71
2023/09/28 03:03:10;;;;;;;16.88;11.25;;;;;;;15.83;100.00;100905.25;5069904;28;20057;-72
2023/09/28 03:05:38;;;;;;;21.00;11.85;;;;;;;15.83;100.00;100907.06;5019901;28;20479;-73
2023/09/28 03:08:11;;;;;;;17.85;11.35;;;;;;;15.80;100.00;100905.47;5056704;28;20072;-71
2023/09/28 03:10:43;;;;;;;16.65;11.95;;;;;;;15.75;100.00;100901.47;5069280;28;20080;-72
2023/09/28 03:13:12;;;;;;;23.02;13.35;;;;;;;15.72;100.00;100901.72;5053684;28;20147;-72
2023/09/28 03:15:44;;;;;;;16.05;12.15;;;;;;;15.70;100.00;100901.81;5051707;28;20586;-71
2023/09/28 03:18:12;;;;;;;15.60;12.57;;;;;;;15.68;100.00;100895.81;5035171;28;20051;-71
2023/09/28 03:20:44;;;;;;;17.10;12.02;;;;;;;15.65;100.00;100904.00;5066043;28;20052;-72
2023/09/28 03:23:12;;;;;;;18.42;12.00;;;;;;;15.63;100.00;100906.72;5068825;28;20451;-70
2023/09/28 03:25:39;;;;;;;14.73;11.38;;;;;;;15.60;100.00;100899.00;5032977;28;20158;-70
2023/09/28 03:28:07;;;;;;;16.88;12.38;;;;;;;15.59;100.00;100905.28;5055843;28;20167;-70
2023/09/28 03:30:34;;;;;;;12.43;11.13;;;;;;;15.57;100.00;100896.56;5070248;28;20635;-69
2023/09/28 03:33:02;;;;;;;16.13;11.38;;;;;;;15.56;100.00;100896.69;5069279;28;20052;-71
2023/09/28 03:35:29;;;;;;;16.23;11.52;;;;;;;15.55;100.00;100898.50;5079766;28;20053;-70
2023/09/28 03:37:59;;;;;;;14.80;11.02;;;;;;;15.50;100.00;100895.34;5061686;28;20072;-70
2023/09/28 03:40:33;;;;;;;17.63;11.80;;;;;;;15.48;100.00;100899.91;5069250;28;20135;-70
2023/09/28 03:43:01;;;;;;;20.63;11.77;;;;;;;15.45;100.00;100902.81;5070649;28;20453;-71
2023/09/28 03:45:28;;;;;;;14.63;11.00;;;;;;;15.43;100.00;100907.38;5069030;28;20130;-70
2023/09/28 03:47:56;;;;;;;14.43;11.43;;;;;;;15.41;100.00;100909.31;5067798;28;20068;-70
2023/09/28 03:50:24;;;;;;;13.95;10.85;;;;;;;15.40;100.00;100905.81;5032351;28;20076;-70
2023/09/28 03:52:52;;;;;;;21.02;12.90;;;;;;;15.38;100.00;100910.38;5014198;28;20056;-71
2023/09/28 03:55:24;;;;;;;21.95;12.18;;;;;;;15.37;100.00;100910.50;5047543;28;20105;-70
2023/09/28 03:57:51;;;;;;;16.70;11.43;;;;;;;15.35;100.00;100915.06;5052429;28;20049;-69
2023/09/28 04:00:19;;;;;;;18.63;12.25;;;;;;;15.33;100.00;100911.69;5062844;28;20487;-71
2023/09/28 04:02:49;;;;;;;18.95;12.15;;;;;;;15.33;100.00;100923.13;5027610;28;20091;-69
2023/09/28 04:05:23;;;;;;;17.83;12.73;;;;;;;15.30;100.00;100917.19;5018101;28;20737;-68
2023/09/28 04:07:50;;;;;;;20.98;13.02;;;;;;;15.28;100.00;100916.47;5038849;28;20052;-69
2023/09/28 04:10:19;;;;;;;17.85;11.80;;;;;;;15.26;100.00;100924.53;5051821;28;20080;-69
2023/09/28 04:12:52;;;;;;;17.60;11.60;;;;;;;15.26;100.00;100923.69;5047771;28;20045;-70
2023/09/28 04:15:20;;;;;;;20.23;12.30;;;;;;;15.22;100.00;100917.78;5035675;28;20045;-69
2023/09/28 04:17:47;;;;;;;19.42;11.93;;;;;;;15.21;100.00;100924.03;5050270;28;20672;-68
2023/09/28 04:20:16;;;;;;;21.65;12.07;;;;;;;15.19;100.00;100923.31;5063847;28;20084;-73
2023/09/28 04:22:45;;;;;;;18.67;11.95;;;;;;;15.17;100.00;100923.44;5013771;28;20053;-73
2023/09/28 04:25:13;;;;;;;15.25;11.90;;;;;;;15.16;100.00;100921.72;5043795;28;20076;-70
2023/09/28 04:27:41;;;;;;;17.17;12.57;;;;;;;15.16;100.00;100921.72;5047775;28;20079;-69
2023/09/28 04:30:09;;;;;;;20.88;12.68;;;;;;;15.15;100.00;100930.63;5045826;28;20377;-70
2023/09/28 04:32:36;;;;;;;37.92;13.65;;;;;;;15.12;100.00;100932.66;5063211;28;20075;-70
2023/09/28 04:35:06;;;;;;;23.20;12.85;;;;;;;15.08;100.00;100928.53;5045044;28;20069;-71
2023/09/28 04:37:33;;;;;;;17.88;12.48;;;;;;;15.07;100.00;100922.38;5030422;28;20083;-70
2023/09/28 04:40:02;;;;;;;17.00;11.98;;;;;;;15.05;100.00;100920.81;5030883;28;20049;-71
2023/09/28 04:42:29;;;;;;;16.23;11.68;;;;;;;15.03;100.00;100920.91;5045500;28;20087;-71
2023/09/28 04:44:57;;;;;;;22.98;12.27;;;;;;;15.04;100.00;100921.75;5046703;28;20108;-70
2023/09/28 04:47:24;;;;;;;17.10;12.02;;;;;;;15.03;100.00;100920.91;5017151;28;20072;-70
2023/09/28 04:49:52;;;;;;;20.92;13.15;;;;;;;15.02;100.00;100916.56;5028597;28;20128;-71
2023/09/28 04:52:19;;;;;;;20.65;11.65;;;;;;;15.03;100.00;100920.91;5044987;28;20530;-71
2023/09/28 04:54:46;;;;;;;16.90;12.40;;;;;;;15.00;100.00;100926.47;5065447;28;20143;-70
2023/09/28 04:57:14;;;;;;;16.73;12.35;;;;;;;15.00;100.00;100922.97;5064066;28;20037;-70
2023/09/28 04:59:41;;;;;;;19.15;11.40;;;;;;;15.00;100.00;100929.13;5031350;28;20049;-71
2023/09/28 05:02:09;;;;;;;19.67;10.98;;;;;;;14.99;100.00;100932.69;5045894;28;20076;-70
2023/09/28 05:04:37;;;;;;;16.88;12.20;;;;;;;15.00;100.00;100936.22;5045697;28;20053;-70
2023/09/28 05:07:05;;;;;;;19.25;13.05;;;;;;;14.99;100.00;100937.16;5021130;28;20057;-70
2023/09/28 05:09:35;;;;;;;24.45;12.43;;;;;;;14.98;100.00;100936.31;5032074;28;20127;-71
2023/09/28 05:12:03;;;;;;;23.05;12.20;;;;;;;14.97;100.00;100942.59;5046745;28;20143;-71
2023/09/28 05:14:31;;;;;;;17.98;11.68;;;;;;;14.96;100.00;100943.53;5047257;28;20173;-70
2023/09/28 05:16:59;;;;;;;16.50;13.00;;;;;;;14.98;100.00;100946.91;5048039;28;20091;-71
2023/09/28 05:19:27;;;;;;;19.65;11.95;;;;;;;14.99;100.00;100943.31;5061000;28;20143;-70
2023/09/28 05:21:54;;;;;;;20.83;12.45;;;;;;;14.99;100.00;100939.81;5028347;28;20071;-68
2023/09/28 05:24:21;;;;;;;20.23;11.73;;;;;;;15.01;100.00;100944.06;5024262;28;20064;-71
2023/09/28 05:26:49;;;;;;;16.50;12.27;;;;;;;15.05;100.00;100950.84;5058346;28;20044;-68
2023/09/28 05:29:16;;;;;;;19.20;11.70;;;;;;;15.10;100.00;100947.84;5057890;28;20044;-67
2023/09/28 05:31:46;;;;;;;18.30;12.27;;;;;;;15.11;100.00;100945.06;5041809;28;20507;-66
2023/09/28 05:34:13;;;;;;;17.85;12.88;;;;;;;15.14;100.00;100949.31;5060265;28;20771;-67
2023/09/28 05:36:40;;;;;;;16.27;11.30;;;;;;;15.17;100.00;100946.41;5059566;28;20052;-68
2023/09/28 05:39:08;;;;;;;35.28;12.20;;;;;;;15.21;99.76;100955.84;5064832;28;20317;-69
2023/09/28 05:41:36;;;;;;;20.35;12.75;;;;;;;15.21;99.62;100945.25;5048967;28;20076;-68
2023/09/28 05:44:04;;;;;;;26.70;11.57;;;;;;;15.24;99.36;100944.19;5045099;28;20486;-67
2023/09/28 05:46:31;;;;;;;16.73;11.18;;;;;;;15.29;99.06;100945.53;5064360;28;20083;-69
2023/09/28 05:48:58;;;;;;;19.23;12.50;;;;;;;15.34;98.94;100950.50;5063865;28;20124;-69
2023/09/28 05:51:27;;;;;;;20.48;12.77;;;;;;;15.36;98.46;100961.88;5063513;28;20109;-69
2023/09/28 05:53:54;;;;;;;40.20;12.77;;;;;;;15.40;98.26;100953.56;5062257;28;20052;-70
2023/09/28 05:56:22;;;;;;;20.63;12.00;;;;;;;15.45;98.01;100958.53;5047695;28;20048;-69
2023/09/28 05:58:50;;;;;;;22.75;12.63;;;;;;;15.43;97.63;100957.78;5064523;28;20140;-68
2023/09/28 06:01:17;;;;;;;22.67;11.90;;;;;;;15.45;97.39;100956.72;5067069;28;20081;-68
2023/09/28 06:03:45;;;;;;;21.38;12.30;;;;;;;15.47;97.60;100959.25;5066414;28;20574;-68
2023/09/28 06:06:17;;;;;;;20.30;11.90;;;;;;;15.56;96.85;100963.88;5045913;28;20056;-69
2023/09/28 06:08:50;;;;;;;20.55;12.48;;;;;;;15.60;96.68;100969.81;5049722;28;20084;-69
2023/09/28 06:11:18;;;;;;;22.17;11.85;;;;;;;15.69;96.47;100972.66;5050504;28;20143;-68
2023/09/28 06:13:46;;;;;;;24.27;12.55;;;;;;;15.74;95.91;100974.13;5023582;28;20056;-69
2023/09/28 06:16:16;;;;;;;19.45;12.05;;;;;;;15.81;95.51;100978.00;5042524;28;20079;-68
2023/09/28 06:18:44;;;;;;;27.33;12.98;;;;;;;15.79;95.21;100979.91;5057289;28;20143;-69
2023/09/28 06:21:12;;;;;;;18.92;12.25;;;;;;;15.93;94.77;100991.19;5040755;28;20135;-69
2023/09/28 06:23:39;;;;;;;22.15;12.27;;;;;;;16.02;94.08;100994.09;5038818;28;20076;-68
2023/09/28 06:26:06;;;;;;;16.33;12.77;;;;;;;16.08;93.89;100998.97;5058277;28;20223;-70
2023/09/28 06:28:34;;;;;;;17.90;11.65;;;;;;;16.20;93.36;100996.19;5055363;28;20499;-69
2023/09/28 06:31:01;;;;;;;24.27;12.68;;;;;;;16.26;92.61;100986.09;5052692;28;20080;-69
2023/09/28 06:33:29;;;;;;;19.48;12.68;;;;;;;16.22;93.23;100990.78;5035904;28;20233;-68
2023/09/28 06:35:57;;;;;;;21.20;13.15;;;;;;;16.35;92.62;100988.03;5039617;28;20063;-68
2023/09/28 06:38:25;;;;;;;25.73;12.52;;;;;;;16.41;92.23;100982.25;5043393;28;20575;-69
2023/09/28 06:40:52;;;;;;;20.48;13.02;;;;;;;16.50;91.74;100984.19;5039377;28;20048;-68
2023/09/28 06:43:20;;;;;;;20.42;13.05;;;;;;;16.54;91.22;100980.31;5054243;28;20091;-67
2023/09/28 06:45:47;;;;;;;21.08;13.38;;;;;;;16.55;90.99;100983.81;5053483;28;20064;-68
2023/09/28 06:48:15;;;;;;;16.33;12.43;;;;;;;16.63;90.87;100979.59;5059975;28;20451;-70
2023/09/28 06:50:47;;;;;;;18.88;13.00;;;;;;;16.74;90.87;100980.59;5051238;28;20075;-68
2023/09/28 06:53:16;;;;;;;25.63;13.18;;;;;;;16.83;89.82;100990.50;5056371;28;20081;-68
2023/09/28 06:55:47;;;;;;;22.02;12.35;;;;;;;16.94;89.03;100988.69;5056095;28;20508;-69
2023/09/28 06:58:30;;;;;;;21.30;12.75;;;;;;;16.98;88.77;100986.63;5058196;28;20134;-68
2023/09/28 07:00:58;;;;;;;28.58;13.65;;;;;;;17.10;88.03;100982.97;5040746;28;20115;-69
2023/09/28 07:03:26;;;;;;;23.25;13.05;;;;;;;17.13;87.36;100985.38;5016149;28;20072;-67
2023/09/28 07:05:53;;;;;;;21.60;14.45;;;;;;;17.19;87.06;100986.69;5053192;28;20512;-68
2023/09/28 07:08:21;;;;;;;20.50;12.40;;;;;;;17.28;87.04;100988.63;5057060;28;20048;-70
2023/09/28 07:10:48;;;;;;;26.35;13.48;;;;;;;17.34;86.62;100995.28;5054283;28;20304;-69
2023/09/28 07:13:15;;;;;;;22.75;13.00;;;;;;;17.44;86.29;100993.53;5036539;28;20154;-69
2023/09/28 07:15:43;;;;;;;21.35;12.57;;;;;;;17.54;86.00;100989.16;5056410;28;20471;-68
2023/09/28 07:18:10;;;;;;;24.77;14.07;;;;;;;17.61;85.72;100995.66;5040327;28;20058;-69
2023/09/28 07:20:38;;;;;;;18.70;13.23;;;;;;;17.70;85.63;100996.72;5051108;28;20126;-68
2023/09/28 07:23:05;;;;;;;28.20;12.80;;;;;;;17.86;85.24;101001.63;5044599;28;20094;-69
2023/09/28 07:25:32;;;;;;;20.52;13.27;;;;;;;17.99;84.31;101007.63;5062630;28;20044;-68
2023/09/28 07:28:00;;;;;;;29.23;13.48;;;;;;;18.01;84.54;100997.69;5065605;28;20041;-69
2023/09/28 07:30:27;;;;;;;21.77;12.65;;;;;;;18.13;84.11;100996.66;5049453;28;20068;-69
2023/09/28 07:32:54;;;;;;;21.38;12.65;;;;;;;18.28;83.39;101001.66;5065553;28;20070;-68
2023/09/28 07:35:22;;;;;;;21.95;11.85;;;;;;;18.41;82.88;101007.63;5048315;28;20078;-68
2023/09/28 07:37:49;;;;;;;16.77;11.98;;;;;;;18.55;82.51;101009.97;5065753;28;20084;-68
2023/09/28 07:40:18;;;;;;;21.25;13.48;;;;;;;18.56;82.17;101008.13;5046939;28;20084;-70
2023/09/28 07:43:02;;;;;;;18.95;13.55;;;;;;;18.70;81.90;101019.31;5069841;28;20084;-69
2023/09/28 07:45:30;;;;;;;25.48;13.57;;;;;;;18.91;80.87;101013.94;5033965;28;20468;-68
2023/09/28 07:47:57;;;;;;;21.65;13.60;;;;;;;18.95;80.45;101017.16;5052939;28;20169;-69
2023/09/28 07:50:25;;;;;;;26.40;13.00;;;;;;;19.11;80.02;101020.19;5031322;28;20072;-69
2023/09/28 07:52:52;;;;;;;20.23;13.18;;;;;;;19.23;79.34;101016.44;5050544;28;20087;-68
2023/09/28 07:55:19;;;;;;;16.27;12.52;;;;;;;19.22;79.21;101020.06;5067858;28;20060;-70
2023/09/28 07:57:47;;;;;;;20.67;13.82;;;;;;;19.35;78.63;101026.97;5072195;28;20051;-69
2023/09/28 08:00:28;;;;;;;17.63;12.02;;;;;;;19.61;77.96;101020.16;5051939;28;20090;-69
2023/09/28 08:02:56;;;;;;;26.70;13.48;;;;;;;19.60;77.51;101026.50;5067924;28;20049;-68
2023/09/28 08:05:23;;;;;;;17.42;13.50;;;;;;;19.73;77.16;101020.88;5067168;28;20079;-68
2023/09/28 08:07:50;;;;;;;17.55;12.60;;;;;;;19.97;75.91;101029.31;5051844;28;20151;-68
2023/09/28 08:10:37;;;;;;;17.67;12.95;;;;;;;20.03;75.30;101019.88;5064126;28;20087;-68
2023/09/28 08:13:04;;;;;;;21.58;13.57;;;;;;;20.13;75.35;101022.56;5051708;28;20135;-69
2023/09/28 08:15:32;;;;;;;23.08;12.82;;;;;;;20.35;74.87;101040.09;5070979;28;20051;-68
2023/09/28 08:18:03;;;;;;;20.13;11.85;;;;;;;20.36;74.90;101039.13;5051702;28;20095;-68
2023/09/28 08:20:33;;;;;;;17.38;12.48;;;;;;;20.46;73.81;101045.28;5063810;28;20087;-69
2023/09/28 08:23:04;;;;;;;17.45;12.35;;;;;;;20.70;73.49;101048.34;5046359;28;20068;-68
2023/09/28 08:25:33;;;;;;;15.88;11.45;;;;;;;20.98;72.82;101045.69;5030575;28;20118;-70
2023/09/28 08:28:01;;;;;;;18.23;11.25;;;;;;;21.26;71.29;101045.75;5067876;28;20162;-69
2023/09/28 08:30:28;;;;;;;17.67;11.98;;;;;;;21.31;70.88;101038.09;5069907;28;20314;-70
2023/09/28 08:32:56;;;;;;;24.60;11.68;;;;;;;21.37;70.41;101038.34;5035654;28;20156;-68
2023/09/28 08:35:23;;;;;;;16.98;12.10;;;;;;;21.46;70.14;101040.13;5070791;28;20439;-68
2023/09/28 08:37:51;;;;;;;19.48;11.90;;;;;;;21.56;69.97;101034.69;5068697;28;20090;-68
2023/09/28 08:40:20;;;;;;;14.90;10.93;;;;;;;21.70;69.42;101028.84;5062880;28;20045;-69
2023/09/28 08:42:47;;;;;;;14.88;11.43;;;;;;;21.73;69.42;101025.84;5033904;28;20049;-70
2023/09/28 08:45:18;;;;;;;17.15;11.88;;;;;;;21.77;69.26;101021.00;5045485;28;20426;-68
2023/09/28 08:47:49;;;;;;;20.20;10.73;;;;;;;21.82;69.40;101024.06;5052813;28;20079;-69
2023/09/28 08:50:23;;;;;;;14.05;10.82;;;;;;;21.99;68.93;101038.47;5064328;28;20135;-68
2023/09/28 08:52:53;;;;;;;17.43;10.80;;;;;;;22.07;68.69;101037.69;5030976;28;20075;-68
2023/09/28 08:55:21;;;;;;;17.25;11.00;;;;;;;22.13;68.10;101034.44;5046692;28;20087;-69
2023/09/28 08:57:48;;;;;;;18.30;11.43;;;;;;;22.09;68.46;101038.38;5051385;28;20106;-68
2023/09/28 09:00:22;;;;;;;20.38;12.38;;;;;;;22.13;68.10;101039.78;5038678;28;20128;-68
2023/09/28 09:02:51;;;;;;;17.23;10.35;;;;;;;22.16;68.53;101036.81;5043331;28;20062;-67
2023/09/28 09:05:20;;;;;;;17.55;11.00;;;;;;;;;;5031307;28;20056;-68
2023/09/28 09:07:50;;;;;;;18.20;11.02;;;;;;;22.54;67.45;101046.28;5027620;28;20064;-67
2023/09/28 09:10:20;;;;;;;19.60;9.60;;;;;;;22.61;67.10;101044.66;5024929;28;20091;-68
2023/09/28 09:12:47;;;;;;;20.48;10.70;;;;;;;22.65;67.16;101040.66;5063981;28;20071;-68
2023/09/28 09:15:14;;;;;;;16.88;10.45;;;;;;;22.85;66.52;101049.31;5061351;28;20064;-69
2023/09/28 09:17:42;;;;;;;16.85;11.25;;;;;;;22.94;66.16;101052.91;5063662;28;20056;-69
2023/09/28 09:20:10;;;;;;;17.63;10.25;;;;;;;23.16;65.58;101054.19;5062476;28;20080;-68
2023/09/28 09:22:37;;;;;;;17.80;10.77;;;;;;;23.26;64.99;101062.97;5061305;28;20056;-69
2023/09/28 09:25:40;;;;;;;19.85;10.45;;;;;;;23.46;64.54;101055.44;5067306;28;20072;-68
2023/09/28 09:28:08;;;;;;;18.17;9.80;;;;;;;23.18;65.67;101050.31;5024107;28;20133;-69
2023/09/28 09:30:35;;;;;;;14.18;9.65;;;;;;;23.45;65.58;101053.78;5067843;28;20048;-69
2023/09/28 09:33:06;;;;;;;17.65;10.35;;;;;;;23.78;64.38;101053.91;5069107;28;20590;-68
2023/09/28 09:35:34;;;;;;;13.88;8.85;;;;;;;23.81;64.47;101054.38;5024393;28;20107;-69
2023/09/28 09:38:02;;;;;;;15.60;10.05;;;;;;;23.87;63.04;101050.22;5060249;28;20163;-68
2023/09/28 09:40:30;;;;;;;17.02;8.68;;;;;;;23.89;63.69;101045.50;5051921;28;20106;-68
2023/09/28 09:43:06;;;;;;;15.82;8.35;;;;;;;24.02;63.55;101056.59;5067122;28;20438;-69
2023/09/28 09:45:38;;;;;;;15.85;8.80;;;;;;;24.27;62.32;101052.03;5065716;28;20079;-69
2023/09/28 09:48:12;;;;;;;13.52;8.68;;;;;;;24.25;62.35;101057.59;5070152;28;20098;-68
2023/09/28 09:50:40;;;;;;;23.92;9.27;;;;;;;24.44;61.25;101059.13;5069330;28;20057;-69
2023/09/28 09:53:09;;;;;;;12.32;8.38;;;;;;;24.69;61.39;101059.94;5007922;28;20106;-69
2023/09/28 09:55:40;;;;;;;14.38;8.50;;;;;;;24.67;60.56;101059.25;5029663;28;20048;-68
2023/09/28 09:58:14;;;;;;;20.50;7.53;;;;;;;24.76;60.44;101046.59;5060519;28;20726;-68
2023/09/28 10:00:44;;;;;;;17.10;8.02;;;;;;;24.95;59.81;101053.47;5062773;28;20140;-68
2023/09/28 10:03:12;;;;;;;16.00;8.25;;;;;;;24.89;59.68;101052.28;5063128;28;20765;-69
2023/09/28 10:05:39;;;;;;;14.00;7.93;;;;;;;25.16;58.48;101051.03;5052729;28;20499;-68
2023/09/28 10:08:07;;;;;;;11.98;7.05;;;;;;;25.22;59.11;101058.44;5049094;28;20068;-71
2023/09/28 10:10:35;;;;;;;9.48;6.47;;;;;;;25.09;58.19;101060.84;5045679;28;20133;-69
2023/09/28 10:13:03;;;;;;;14.50;6.82;;;;;;;24.99;59.01;101049.38;5040215;28;20045;-68
2023/09/28 10:15:30;;;;;;;11.88;6.03;;;;;;;25.07;58.00;101056.59;5052087;28;20076;-68
2023/09/28 10:17:58;;;;;;;11.90;6.82;;;;;;;25.00;56.84;101051.09;5055066;28;20080;-69
2023/09/28 10:20:25;;;;;;;9.07;5.60;;;;;;;25.37;55.84;101046.91;5044758;28;20055;-69
2023/09/28 10:22:54;;;;;;;8.77;5.80;;;;;;;25.48;55.20;101059.97;5045306;28;20049;-66
2023/09/28 10:25:23;;;;;;;13.82;6.40;;;;;;;25.38;55.03;101053.97;5046132;28;20135;-67
2023/09/28 10:27:57;;;;;;;9.15;5.50;;;;;;;25.68;54.23;101053.13;5056856;28;20084;-69
2023/09/28 10:30:25;;;;;;;8.50;5.18;;;;;;;26.18;52.25;101057.16;5068256;28;20044;-69
2023/09/28 10:32:55;;;;;;;8.88;4.93;;;;;;;25.87;53.54;101062.63;5051347;28;20057;-69
2023/09/28 10:35:26;;;;;;;17.75;5.57;;;;;;;26.03;51.87;101067.06;5067243;28;20079;-69
2023/09/28 10:38:19;;;;;;;8.43;4.90;;;;;;;26.37;49.99;101065.75;5065723;28;20513;-68
2023/09/28 10:40:58;;;;;;;8.27;4.45;;;;;;;26.51;49.95;101060.41;5046888;28;20060;-69
2023/09/28 10:43:29;;;;;;;9.13;5.30;;;;;;;26.51;49.84;101062.28;5067615;28;20048;-68
2023/09/28 10:45:57;;;;;;;9.48;5.32;;;;;;;26.33;50.77;101062.59;5067368;28;20111;-70
2023/09/28 10:48:24;;;;;;;6.78;5.45;;;;;;;26.00;51.93;101052.06;5061559;28;20473;-68
2023/09/28 10:50:53;;;;;;;12.88;5.05;;;;;;;26.38;50.36;101062.03;5058294;28;20052;-68
2023/09/28 10:53:21;;;;;;;6.07;4.10;;;;;;;26.72;49.37;101061.56;5064306;28;20536;-67
2023/09/28 10:55:48;;;;;;;7.95;4.50;;;;;;;27.18;48.76;101074.91;5064207;28;20571;-69
2023/09/28 10:58:16;;;;;;;8.77;5.32;;;;;;;27.14;47.73;101062.78;5049479;28;20089;-70
2023/09/28 11:00:44;;;;;;;6.40;4.78;;;;;;;27.45;47.32;101065.25;5053205;28;20102;-69
2023/09/28 11:03:11;;;;;;;7.97;4.75;;;;;;;27.74;47.06;101069.78;5042835;28;20110;-69
2023/09/28 11:05:40;;;;;;;8.68;4.50;;;;;;;27.95;46.19;101061.66;5047316;28;20102;-70
2023/09/28 11:08:08;;;;;;;9.50;4.60;;;;;;;28.20;45.62;101064.81;5028836;28;20132;-69
2023/09/28 11:10:36;;;;;;;19.63;5.45;;;;;;;28.11;44.74;101070.56;5067473;28;20566;-68
2023/09/28 11:13:04;;;;;;;12.07;4.65;;;;;;;27.69;45.45;101061.34;5064979;28;20063;-69
2023/09/28 11:15:32;;;;;;;11.40;4.70;;;;;;;27.80;45.42;101060.88;5028408;28;20069;-70
2023/09/28 11:17:59;;;;;;;6.45;4.57;;;;;;;28.37;44.69;101067.22;5043732;28;20041;-69